Ayvalik, Turkey

8:37 PM EEST on July 30, 2014 (GMT +0300)
Odysseas Elytis (LGMT) Elev 16 ft | 39.05 °N, 26.60 °E | Change Station

Current weather conditions updated 17 minutes ago

Clear
Clear
91 °F
Feels Like 92 °F
N
6
Wind Variable Wind from WNW

Tomorrow is forecast to be nearly the same temperature as today.

Today
High -- | Low -- °F
--% Chance of Precip.
Yesterday
High -- | Low -- °F
Precip. -- in
6:11 AM 8:27 PM
Waxing Crescent, 12% visible
Pressure 29.74 in
Visibility -9999.0 miles
Clouds
Heat Index 92 °F
Dew Point 63 °F
Humidity 38%
Rainfall 0.00 in
Snow Depth Not available.
UV Not available.
Pollen Not available.
Air Quality Not available.
Flu Activity Not available.
METAR LGMT 301720Z 30005KT CAVOK 33/17 Q1007

More Conditions Fewer Conditions

Pressure 29.74 in
Visibility -9999.0 miles
Clouds
Heat Index 92 °F
Dew Point 63 °F
Humidity 38%
Rainfall 0.00 in
Snow Depth Not available.
UV Not available.
Pollen Not available.
Air Quality Not available.
Flu Activity Not available.
METAR LGMT 301720Z 30005KT CAVOK 33/17 Q1007

More Conditions Fewer Conditions

10-Day Weather Forecast

Almanac

Astronomy

Jul. 30, 2014 Rise Set
Actual Time 6:11 AM EEST 8:27 PM EEST
Civil Twilight 5:41 AM EEST 8:57 PM EEST
Nautical Twilight 5:03 AM EEST 9:34 PM EEST
Astronomical Twilight 4:23 AM EEST 10:15 PM EEST
Moon 9:23 AM EEST 10:02 PM EEST
Length of Visible Light 15h 16m
Length of Day
14h 16m
Tomorrow will be 1m 53s shorter.
Waxing Crescent, 12% of the Moon is Illuminated
Today
Waxing Crescent
Aug 3
First Quarter
Aug 10
Full
Aug 17
Last Quarter
Aug 25
New

Today's Extremes

Country Highs Country Lows

Community

WunderPhotos

Upload Photos

1,739,140 photos uploaded!

Nearby

Snow Depth

Not available.

Earthquake Activity

City Distance Mag. Time & Date
No recent earthquake activity has been reported nearby.
Minimum magnitude displayed is 2.5.

Coastal Water Temperatures

Place Temperature
No Stations Reporting

Nearby Weather Stations

There are no personal weather stations in this area.